PWSweather.com
Personal Weather Stations
Station Observations
KNVELKO7
Elko, NV 89801

Elko, NV 89801

Lat: 40.963233, Lon: -115.592836

Elevation: 5230

Station Type: WS-2812

Latest ConditionsUpdated 7:08:09 PM PDT Friday, Aug 29, 2014
Currently Today's Max Today's Min Today's Average
Temperature 79.7°F26.5°C 93.8°F34.3°C 45.7°F7.6°C 69.8°F21.0°C
Dew Point 38.4°F3.6°C 51.9°F11.1°C 33.2°F0.7°C 41.5°F5.3°C
Winds 2.8 mph SW4.5 kmh SW 13.9 mph SW22.4 kmh SW - 3.5 mph 5.6 kmh
Wind Gusts 4.7 mph7.6 kmh 15.7 mph25.3 kmh - -
Humidity 23% 68% 18% 40%
Pressure 29.96 in1014.6 mb 30.11 in1019.6 mb 29.96 in1014.6 mb -
Hour Temp Dew Point Humidity Winds Wind Gusts Pressure Precip Precip Rate Daily Precip Total
07:08 PM 79.7°F26.5°C 38.4°F3.6°C 23% 2.8 mph SW4.5 kmh SW 4.7 mph7.6 kmh 29.96 in1014.6 mb 0.00 in0.0 mm 0.00 in/hr0.0 mm/hr 0.00 in0.0 mm
07:03 PM 80.3°F26.8°C 38.8°F3.8°C 23% 2.9 mph SW4.7 kmh SW 4.0 mph6.4 kmh 29.96 in1014.6 mb 0.00 in0.0 mm 0.00 in/hr0.0 mm/hr 0.00 in0.0 mm
06:57 PM 80.6°F27.0°C 39.2°F4.0°C 23% 3.7 mph SW6.0 kmh SW 5.4 mph8.7 kmh 29.96 in1014.6 mb 0.00 in0.0 mm 0.00 in/hr0.0 mm/hr 0.00 in0.0 mm
06:51 PM 81.2°F27.3°C 39.6°F4.2°C 23% 4.9 mph SW7.9 kmh SW 5.4 mph8.7 kmh 29.96 in1014.6 mb 0.00 in0.0 mm 0.00 in/hr0.0 mm/hr 0.00 in0.0 mm
06:46 PM 81.7°F27.6°C 40.0°F4.4°C 23% 3.8 mph SW6.1 kmh SW 6.7 mph10.8 kmh 29.96 in1014.6 mb 0.00 in0.0 mm 0.00 in/hr0.0 mm/hr 0.00 in0.0 mm
06:41 PM 82.1°F27.8°C 39.2°F4.0°C 22% 4.3 mph SW6.9 kmh SW 6.7 mph10.8 kmh 29.96 in1014.6 mb 0.00 in0.0 mm 0.00 in/hr0.0 mm/hr 0.00 in0.0 mm
06:36 PM 82.8°F28.2°C 39.8°F4.3°C 22% 3.5 mph SW5.6 kmh SW 4.5 mph7.2 kmh 29.96 in1014.6 mb 0.00 in0.0 mm 0.00 in/hr0.0 mm/hr 0.00 in0.0 mm
06:31 PM 83.3°F28.5°C 40.2°F4.6°C 22% 3.9 mph SW6.3 kmh SW 5.1 mph8.2 kmh 29.96 in1014.6 mb 0.00 in0.0 mm 0.00 in/hr0.0 mm/hr 0.00 in0.0 mm
06:26 PM 83.7°F28.7°C 40.6°F4.8°C 22% 3.4 mph SW5.5 kmh SW 6.7 mph10.8 kmh 29.96 in1014.6 mb 0.00 in0.0 mm 0.00 in/hr0.0 mm/hr 0.00 in0.0 mm
06:21 PM 83.9°F28.8°C 39.7°F4.3°C 21% 5.3 mph SW8.5 kmh SW 7.6 mph12.2 kmh 29.96 in1014.6 mb 0.00 in0.0 mm 0.00 in/hr0.0 mm/hr 0.00 in0.0 mm
06:16 PM 84.4°F29.1°C 40.1°F4.5°C 21% 5.7 mph SW9.2 kmh SW 7.6 mph12.2 kmh 29.96 in1014.6 mb 0.00 in0.0 mm 0.00 in/hr0.0 mm/hr 0.00 in0.0 mm
06:11 PM 85.0°F29.4°C 40.5°F4.7°C 21% 6.6 mph S10.6 kmh S 7.6 mph12.2 kmh 29.96 in1014.6 mb 0.00 in0.0 mm 0.00 in/hr0.0 mm/hr 0.00 in0.0 mm
06:06 PM 85.9°F29.9°C 41.2°F5.1°C 21% 7.1 mph SSW11.4 kmh SSW 9.8 mph15.8 kmh 29.96 in1014.6 mb 0.00 in0.0 mm 0.00 in/hr0.0 mm/hr 0.00 in0.0 mm
06:01 PM 86.6°F30.3°C 41.9°F5.5°C 21% 8.1 mph SSW13.0 kmh SSW 9.8 mph15.8 kmh 29.96 in1014.6 mb 0.00 in0.0 mm 0.00 in/hr0.0 mm/hr 0.00 in0.0 mm
05:55 PM 87.3°F30.7°C 42.5°F5.8°C 21% 7.8 mph SSW12.6 kmh SSW 9.2 mph14.8 kmh 29.97 in1014.9 mb 0.00 in0.0 mm 0.00 in/hr0.0 mm/hr 0.00 in0.0 mm
05:50 PM 87.5°F30.8°C 39.9°F4.4°C 19% 8.0 mph SW12.9 kmh SW 10.5 mph16.9 kmh 29.97 in1014.9 mb 0.00 in0.0 mm 0.00 in/hr0.0 mm/hr 0.00 in0.0 mm
05:45 PM 88.0°F31.1°C 43.1°F6.2°C 21% 9.9 mph SSW15.9 kmh SSW 11.4 mph18.3 kmh 29.97 in1014.9 mb 0.00 in0.0 mm 0.00 in/hr0.0 mm/hr 0.00 in0.0 mm
05:40 PM 88.2°F31.2°C 43.3°F6.3°C 21% 7.8 mph SW12.6 kmh SW 13.0 mph20.9 kmh 29.97 in1014.9 mb 0.00 in0.0 mm 0.00 in/hr0.0 mm/hr 0.00 in0.0 mm
05:35 PM 88.6°F31.4°C 43.6°F6.4°C 21% 10.8 mph SSW17.4 kmh SSW 13.0 mph20.9 kmh 29.97 in1014.9 mb 0.00 in0.0 mm 0.00 in/hr0.0 mm/hr 0.00 in0.0 mm
05:30 PM 88.4°F31.3°C 43.5°F6.4°C 21% 6.4 mph S10.3 kmh S 13.4 mph21.6 kmh 29.97 in1014.9 mb 0.00 in0.0 mm 0.00 in/hr0.0 mm/hr 0.00 in0.0 mm
05:24 PM 88.0°F31.1°C 43.1°F6.2°C 21% 11.8 mph SSW19.0 kmh SSW 13.4 mph21.6 kmh 29.97 in1014.9 mb 0.00 in0.0 mm 0.00 in/hr0.0 mm/hr 0.00 in0.0 mm
05:20 PM 88.6°F31.4°C 43.6°F6.4°C 21% 9.9 mph S15.9 kmh S 14.3 mph23.0 kmh 29.97 in1014.9 mb 0.00 in0.0 mm 0.00 in/hr0.0 mm/hr 0.00 in0.0 mm
05:15 PM 88.7°F31.5°C 43.8°F6.6°C 21% 11.0 mph SSW17.7 kmh SSW 14.3 mph23.0 kmh 29.97 in1014.9 mb 0.00 in0.0 mm 0.00 in/hr0.0 mm/hr 0.00 in0.0 mm
05:10 PM 88.9°F31.6°C 43.9°F6.6°C 21% 8.5 mph SSW13.7 kmh SSW 13.2 mph21.2 kmh 29.98 in1015.2 mb 0.00 in0.0 mm 0.00 in/hr0.0 mm/hr 0.00 in0.0 mm
05:05 PM 89.3°F31.8°C 44.2°F6.8°C 21% 10.9 mph SW17.5 kmh SW 13.2 mph21.2 kmh 29.98 in1015.2 mb 0.00 in0.0 mm 0.00 in/hr0.0 mm/hr 0.00 in0.0 mm
05:00 PM 89.6°F32.0°C 41.7°F5.4°C 19% 10.6 mph SW17.1 kmh SW 11.4 mph18.3 kmh 29.98 in1015.2 mb 0.00 in0.0 mm 0.00 in/hr0.0 mm/hr 0.00 in0.0 mm
04:54 PM 89.6°F32.0°C 43.4°F6.3°C 20% 6.4 mph WSW10.3 kmh WSW 8.3 mph13.4 kmh 29.98 in1015.2 mb 0.00 in0.0 mm 0.00 in/hr0.0 mm/hr 0.00 in0.0 mm
04:49 PM 89.8°F32.1°C 41.8°F5.4°C 19% 4.3 mph SSW6.9 kmh SSW 10.7 mph17.2 kmh 29.98 in1015.2 mb 0.00 in0.0 mm 0.00 in/hr0.0 mm/hr 0.00 in0.0 mm
04:44 PM 90.0°F32.2°C 44.7°F7.1°C 21% 9.1 mph SW14.6 kmh SW 10.7 mph17.2 kmh 29.98 in1015.2 mb 0.00 in0.0 mm 0.00 in/hr0.0 mm/hr 0.00 in0.0 mm
04:39 PM 90.2°F32.3°C 44.9°F7.2°C 21% 8.3 mph S13.4 kmh S 10.5 mph16.9 kmh 29.98 in1015.2 mb 0.00 in0.0 mm 0.00 in/hr0.0 mm/hr 0.00 in0.0 mm
04:34 PM 90.2°F32.3°C 44.9°F7.2°C 21% 7.4 mph S11.9 kmh S 7.6 mph12.2 kmh 29.98 in1015.2 mb 0.00 in0.0 mm 0.00 in/hr0.0 mm/hr 0.00 in0.0 mm
04:29 PM 90.2°F32.3°C 44.9°F7.2°C 21% 3.5 mph S5.6 kmh S 10.3 mph16.6 kmh 29.98 in1015.2 mb 0.00 in0.0 mm 0.00 in/hr0.0 mm/hr 0.00 in0.0 mm
04:24 PM 90.5°F32.5°C 45.2°F7.3°C 21% 7.5 mph SW12.1 kmh SW 10.3 mph16.6 kmh 29.99 in1015.6 mb 0.00 in0.0 mm 0.00 in/hr0.0 mm/hr 0.00 in0.0 mm
04:19 PM 90.4°F32.4°C 46.2°F7.9°C 22% 5.9 mph SW9.5 kmh SW 9.4 mph15.1 kmh 29.99 in1015.6 mb 0.00 in0.0 mm 0.00 in/hr0.0 mm/hr 0.00 in0.0 mm
04:14 PM 89.6°F32.0°C 44.5°F6.9°C 21% 7.6 mph SSW12.2 kmh SSW 11.0 mph17.7 kmh 29.99 in1015.6 mb 0.00 in0.0 mm 0.00 in/hr0.0 mm/hr 0.00 in0.0 mm
04:09 PM 89.3°F31.8°C 45.3°F7.4°C 22% 7.3 mph S11.7 kmh S 11.0 mph17.7 kmh 29.99 in1015.6 mb 0.00 in0.0 mm 0.00 in/hr0.0 mm/hr 0.00 in0.0 mm
04:04 PM 88.7°F31.5°C 44.8°F7.1°C 22% 5.4 mph S8.7 kmh S 9.2 mph14.8 kmh 29.99 in1015.6 mb 0.00 in0.0 mm 0.00 in/hr0.0 mm/hr 0.00 in0.0 mm
03:59 PM 88.6°F31.4°C 43.6°F6.4°C 21% 8.3 mph S13.4 kmh S 9.2 mph14.8 kmh 29.99 in1015.6 mb 0.00 in0.0 mm 0.00 in/hr0.0 mm/hr 0.00 in0.0 mm
03:54 PM 88.9°F31.6°C 43.9°F6.6°C 21% 7.0 mph SSW11.3 kmh SSW 12.1 mph19.5 kmh 29.99 in1015.6 mb 0.00 in0.0 mm 0.00 in/hr0.0 mm/hr 0.00 in0.0 mm
03:49 PM 89.1°F31.7°C 44.0°F6.7°C 21% 6.8 mph SSW10.9 kmh SSW 12.5 mph20.1 kmh 29.99 in1015.6 mb 0.00 in0.0 mm 0.00 in/hr0.0 mm/hr 0.00 in0.0 mm
03:44 PM 89.5°F31.9°C 44.3°F6.8°C 21% 10.1 mph SSW16.3 kmh SSW 12.5 mph20.1 kmh 29.99 in1015.6 mb 0.00 in0.0 mm 0.00 in/hr0.0 mm/hr 0.00 in0.0 mm
03:39 PM 89.5°F31.9°C 44.3°F6.8°C 21% 7.2 mph SW11.6 kmh SW 14.1 mph22.7 kmh 30.00 in1015.9 mb 0.00 in0.0 mm 0.00 in/hr0.0 mm/hr 0.00 in0.0 mm
03:34 PM 89.8°F32.1°C 43.6°F6.4°C 20% 13.1 mph SW21.1 kmh SW 14.1 mph22.7 kmh 30.00 in1015.9 mb 0.00 in0.0 mm 0.00 in/hr0.0 mm/hr 0.00 in0.0 mm
03:29 PM 89.6°F32.0°C 44.5°F6.9°C 21% 3.9 mph S6.3 kmh S 8.9 mph14.3 kmh 30.00 in1015.9 mb 0.00 in0.0 mm 0.00 in/hr0.0 mm/hr 0.00 in0.0 mm
03:24 PM 89.1°F31.7°C 42.9°F6.1°C 20% 6.0 mph S9.7 kmh S 8.9 mph14.3 kmh 30.00 in1015.9 mb 0.00 in0.0 mm 0.00 in/hr0.0 mm/hr 0.00 in0.0 mm
03:19 PM 88.7°F31.5°C 41.0°F5.0°C 19% 2.3 mph SW3.7 kmh SW 12.1 mph19.5 kmh 30.00 in1015.9 mb 0.00 in0.0 mm 0.00 in/hr0.0 mm/hr 0.00 in0.0 mm
03:14 PM 89.3°F31.8°C 39.6°F4.2°C 18% 11.6 mph SW18.7 kmh SW 12.1 mph19.5 kmh 30.00 in1015.9 mb 0.00 in0.0 mm 0.00 in/hr0.0 mm/hr 0.00 in0.0 mm
03:09 PM 90.2°F32.3°C 42.0°F5.6°C 19% 9.7 mph SW15.6 kmh SW 11.4 mph18.3 kmh 30.01 in1016.3 mb 0.00 in0.0 mm 0.00 in/hr0.0 mm/hr 0.00 in0.0 mm
03:04 PM 90.7°F32.6°C 45.4°F7.4°C 21% 7.1 mph SW11.4 kmh SW 14.3 mph23.0 kmh 30.01 in1016.3 mb 0.00 in0.0 mm 0.00 in/hr0.0 mm/hr 0.00 in0.0 mm
02:59 PM 90.7°F32.6°C 45.4°F7.4°C 21% 7.4 mph SE11.9 kmh SE 14.3 mph23.0 kmh 30.01 in1016.3 mb 0.00 in0.0 mm 0.00 in/hr0.0 mm/hr 0.00 in0.0 mm
02:54 PM 90.7°F32.6°C 45.4°F7.4°C 21% 7.5 mph SE12.1 kmh SE 8.5 mph13.7 kmh 30.01 in1016.3 mb 0.00 in0.0 mm 0.00 in/hr0.0 mm/hr 0.00 in0.0 mm
02:49 PM 90.4°F32.4°C 45.0°F7.2°C 21% 5.2 mph SW8.4 kmh SW 12.5 mph20.1 kmh 30.01 in1016.3 mb 0.00 in0.0 mm 0.00 in/hr0.0 mm/hr 0.00 in0.0 mm
02:44 PM 90.0°F32.2°C 42.0°F5.6°C 19% 8.1 mph SSW13.0 kmh SSW 15.2 mph24.5 kmh 30.02 in1016.6 mb 0.00 in0.0 mm 0.00 in/hr0.0 mm/hr 0.00 in0.0 mm
02:39 PM 90.5°F32.5°C 42.4°F5.8°C 19% 13.9 mph SW22.4 kmh SW 15.2 mph24.5 kmh 30.02 in1016.6 mb 0.00 in0.0 mm 0.00 in/hr0.0 mm/hr 0.00 in0.0 mm
02:34 PM 90.4°F32.4°C 45.0°F7.2°C 21% 11.6 mph SW18.7 kmh SW 13.0 mph20.9 kmh 30.02 in1016.6 mb 0.00 in0.0 mm 0.00 in/hr0.0 mm/hr 0.00 in0.0 mm
02:29 PM 89.8°F32.1°C 44.7°F7.1°C 21% 6.9 mph SW11.1 kmh SW 15.7 mph25.3 kmh 30.02 in1016.6 mb 0.00 in0.0 mm 0.00 in/hr0.0 mm/hr 0.00 in0.0 mm
02:24 PM 90.4°F32.4°C 43.9°F6.6°C 20% 11.2 mph SW18.0 kmh SW 15.7 mph25.3 kmh 30.02 in1016.6 mb 0.00 in0.0 mm 0.00 in/hr0.0 mm/hr 0.00 in0.0 mm
02:19 PM 91.3°F32.9°C 45.8°F7.7°C 21% 9.2 mph SW14.8 kmh SW 12.3 mph19.8 kmh 30.02 in1016.6 mb 0.00 in0.0 mm 0.00 in/hr0.0 mm/hr 0.00 in0.0 mm
02:14 PM 91.6°F33.1°C 47.2°F8.4°C 22% 9.3 mph S15.0 kmh S 11.6 mph18.7 kmh 30.02 in1016.6 mb 0.00 in0.0 mm 0.00 in/hr0.0 mm/hr 0.00 in0.0 mm
02:09 PM 91.4°F33.0°C 47.0°F8.3°C 22% 6.2 mph SSE10.0 kmh SSE 10.1 mph16.3 kmh 30.02 in1016.6 mb 0.00 in0.0 mm 0.00 in/hr0.0 mm/hr 0.00 in0.0 mm
02:04 PM 91.6°F33.1°C 47.2°F8.4°C 22% 8.1 mph S13.0 kmh S 10.1 mph16.3 kmh 30.03 in1016.9 mb 0.00 in0.0 mm 0.00 in/hr0.0 mm/hr 0.00 in0.0 mm
01:58 PM 91.4°F33.0°C 45.9°F7.7°C 21% 4.4 mph SSW7.1 kmh SSW 8.3 mph13.4 kmh 30.03 in1016.9 mb 0.00 in0.0 mm 0.00 in/hr0.0 mm/hr 0.00 in0.0 mm
01:53 PM 91.8°F33.2°C 43.4°F6.3°C 19% 5.1 mph SSW8.2 kmh SSW 8.3 mph13.4 kmh 30.03 in1016.9 mb 0.00 in0.0 mm 0.00 in/hr0.0 mm/hr 0.00 in0.0 mm
01:48 PM 92.5°F33.6°C 46.8°F8.2°C 21% 1.3 mph WSW2.1 kmh WSW 6.3 mph10.1 kmh 30.03 in1016.9 mb 0.00 in0.0 mm 0.00 in/hr0.0 mm/hr 0.00 in0.0 mm
01:43 PM 92.2°F33.4°C 46.5°F8.1°C 21% 1.8 mph SW2.9 kmh SW 6.0 mph9.7 kmh 30.03 in1016.9 mb 0.00 in0.0 mm 0.00 in/hr0.0 mm/hr 0.00 in0.0 mm
01:38 PM 91.8°F33.2°C 47.4°F8.6°C 22% 4.4 mph S7.1 kmh S 9.4 mph15.1 kmh 30.04 in1017.3 mb 0.00 in0.0 mm 0.00 in/hr0.0 mm/hr 0.00 in0.0 mm
01:33 PM 91.6°F33.1°C 46.1°F7.8°C 21% 2.3 mph SW3.7 kmh SW 9.8 mph15.8 kmh 30.04 in1017.3 mb 0.00 in0.0 mm 0.00 in/hr0.0 mm/hr 0.00 in0.0 mm
01:29 PM 91.8°F33.2°C 47.4°F8.6°C 22% 8.8 mph S14.2 kmh S 9.8 mph15.8 kmh 30.04 in1017.3 mb 0.00 in0.0 mm 0.00 in/hr0.0 mm/hr 0.00 in0.0 mm
01:24 PM 92.0°F33.3°C 46.4°F8.0°C 21% 7.9 mph SW12.7 kmh SW 9.2 mph14.8 kmh 30.04 in1017.3 mb 0.00 in0.0 mm 0.00 in/hr0.0 mm/hr 0.00 in0.0 mm
01:19 PM 92.0°F33.3°C 43.5°F6.4°C 19% 0.9 mph NNW1.4 kmh NNW 9.6 mph15.4 kmh 30.04 in1017.3 mb 0.00 in0.0 mm 0.00 in/hr0.0 mm/hr 0.00 in0.0 mm
01:14 PM 93.1°F33.9°C 46.1°F7.8°C 20% 5.7 mph WSW9.2 kmh WSW 9.6 mph15.4 kmh 30.04 in1017.3 mb 0.00 in0.0 mm 0.00 in/hr0.0 mm/hr 0.00 in0.0 mm
01:09 PM 93.8°F34.3°C 50.1°F10.1°C 23% 5.3 mph WSW8.5 kmh WSW 7.8 mph12.6 kmh 30.04 in1017.3 mb 0.00 in0.0 mm 0.00 in/hr0.0 mm/hr 0.00 in0.0 mm
01:04 PM 92.9°F33.8°C 50.4°F10.2°C 24% 1.1 mph S1.8 kmh S 6.9 mph11.1 kmh 30.05 in1017.6 mb 0.00 in0.0 mm 0.00 in/hr0.0 mm/hr 0.00 in0.0 mm
12:58 PM 92.2°F33.4°C 49.8°F9.9°C 24% 4.8 mph SW7.7 kmh SW 6.0 mph9.7 kmh 30.04 in1017.3 mb 0.00 in0.0 mm 0.00 in/hr0.0 mm/hr 0.00 in0.0 mm
12:53 PM 91.6°F33.1°C 48.2°F9.0°C 23% 2.8 mph SW4.5 kmh SW 5.6 mph9.0 kmh 30.05 in1017.6 mb 0.00 in0.0 mm 0.00 in/hr0.0 mm/hr 0.00 in0.0 mm
12:48 PM 91.1°F32.8°C 47.8°F8.8°C 23% 5.3 mph SSW8.5 kmh SSW 5.6 mph9.0 kmh 30.05 in1017.6 mb 0.00 in0.0 mm 0.00 in/hr0.0 mm/hr 0.00 in0.0 mm
12:43 PM 91.3°F32.9°C 48.0°F8.9°C 23% 3.4 mph SW5.5 kmh SW 5.1 mph8.2 kmh 30.05 in1017.6 mb 0.00 in0.0 mm 0.00 in/hr0.0 mm/hr 0.00 in0.0 mm
12:38 PM 91.3°F32.9°C 48.0°F8.9°C 23% 1.8 mph W2.9 kmh W 4.9 mph7.9 kmh 30.05 in1017.6 mb 0.00 in0.0 mm 0.00 in/hr0.0 mm/hr 0.00 in0.0 mm
12:33 PM 90.9°F32.7°C 49.9°F9.9°C 25% 4.4 mph SW7.1 kmh SW 4.9 mph7.9 kmh 30.05 in1017.6 mb 0.00 in0.0 mm 0.00 in/hr0.0 mm/hr 0.00 in0.0 mm
12:28 PM 90.0°F32.2°C 50.1°F10.1°C 26% 0.8 mph ESE1.3 kmh ESE 3.1 mph5.0 kmh 30.06 in1017.9 mb 0.00 in0.0 mm 0.00 in/hr0.0 mm/hr 0.00 in0.0 mm
12:23 PM 88.9°F31.6°C 48.2°F9.0°C 25% 1.7 mph W2.7 kmh W 4.9 mph7.9 kmh 30.06 in1017.9 mb 0.00 in0.0 mm 0.00 in/hr0.0 mm/hr 0.00 in0.0 mm
12:18 PM 88.6°F31.4°C 47.9°F8.8°C 25% 2.3 mph NW3.7 kmh NW 5.6 mph9.0 kmh 30.06 in1017.9 mb 0.00 in0.0 mm 0.00 in/hr0.0 mm/hr 0.00 in0.0 mm
12:13 PM 88.6°F31.4°C 49.0°F9.4°C 26% 4.3 mph WSW6.9 kmh WSW 5.6 mph9.0 kmh 30.06 in1017.9 mb 0.00 in0.0 mm 0.00 in/hr0.0 mm/hr 0.00 in0.0 mm
12:08 PM 87.7°F30.9°C 49.2°F9.6°C 27% 1.0 mph SSW1.6 kmh SSW 4.3 mph6.9 kmh 30.07 in1018.3 mb 0.00 in0.0 mm 0.00 in/hr0.0 mm/hr 0.00 in0.0 mm
12:03 PM 87.3°F30.7°C 47.9°F8.8°C 26% 3.9 mph W6.3 kmh W 5.1 mph8.2 kmh 30.07 in1018.3 mb 0.00 in0.0 mm 0.00 in/hr0.0 mm/hr 0.00 in0.0 mm
11:58 AM 87.3°F30.7°C 47.9°F8.8°C 26% 0.7 mph SW1.1 kmh SW 5.1 mph8.2 kmh 30.07 in1018.3 mb 0.00 in0.0 mm 0.00 in/hr0.0 mm/hr 0.00 in0.0 mm
11:53 AM 88.2°F31.2°C 47.5°F8.6°C 25% 3.4 mph W5.5 kmh W 5.1 mph8.2 kmh 30.07 in1018.3 mb 0.00 in0.0 mm 0.00 in/hr0.0 mm/hr 0.00 in0.0 mm
11:48 AM 87.7°F30.9°C 50.3°F10.2°C 28% 0.8 mph E1.3 kmh E 3.4 mph5.5 kmh 30.08 in1018.6 mb 0.00 in0.0 mm 0.00 in/hr0.0 mm/hr 0.00 in0.0 mm
11:43 AM 87.5°F30.8°C 50.1°F10.1°C 28% 2.5 mph E4.0 kmh E 3.1 mph5.0 kmh 30.08 in1018.6 mb 0.00 in0.0 mm 0.00 in/hr0.0 mm/hr 0.00 in0.0 mm
11:38 AM 86.9°F30.5°C 50.8°F10.4°C 29% 1.1 mph NE1.8 kmh NE 2.5 mph4.0 kmh 30.08 in1018.6 mb 0.00 in0.0 mm 0.00 in/hr0.0 mm/hr 0.00 in0.0 mm
11:33 AM 86.0°F30.0°C 51.9°F11.1°C 31% 1.9 mph SW3.1 kmh SW 2.5 mph4.0 kmh 30.08 in1018.6 mb 0.00 in0.0 mm 0.00 in/hr0.0 mm/hr 0.00 in0.0 mm
11:28 AM 85.3°F29.6°C 50.5°F10.3°C 30% 0.8 mph NW1.3 kmh NW 3.8 mph6.1 kmh 30.08 in1018.6 mb 0.00 in0.0 mm 0.00 in/hr0.0 mm/hr 0.00 in0.0 mm
11:23 AM 84.6°F29.2°C 49.9°F9.9°C 30% 3.0 mph SSW4.8 kmh SSW 3.8 mph6.1 kmh 30.08 in1018.6 mb 0.00 in0.0 mm 0.00 in/hr0.0 mm/hr 0.00 in0.0 mm
11:18 AM 84.8°F29.3°C 51.6°F10.9°C 32% 2.3 mph NE3.7 kmh NE 2.9 mph4.7 kmh 30.08 in1018.6 mb 0.00 in0.0 mm 0.00 in/hr0.0 mm/hr 0.00 in0.0 mm
11:13 AM 84.2°F29.0°C 51.1°F10.6°C 32% Calm Calm 1.3 mph2.1 kmh 30.09 in1019.0 mb 0.00 in0.0 mm 0.00 in/hr0.0 mm/hr 0.00 in0.0 mm
11:08 AM 83.7°F28.7°C 51.4°F10.8°C 33% 1.3 mph ESE2.1 kmh ESE 2.5 mph4.0 kmh 30.09 in1019.0 mb 0.00 in0.0 mm 0.00 in/hr0.0 mm/hr 0.00 in0.0 mm
11:03 AM 82.8°F28.2°C 51.4°F10.8°C 34% 0.4 mph NE0.6 kmh NE 2.5 mph4.0 kmh 30.09 in1019.0 mb 0.00 in0.0 mm 0.00 in/hr0.0 mm/hr 0.00 in0.0 mm
10:58 AM 81.9°F27.7°C 50.6°F10.3°C 34% 1.5 mph SSE2.4 kmh SSE 2.5 mph4.0 kmh 30.09 in1019.0 mb 0.00 in0.0 mm 0.00 in/hr0.0 mm/hr 0.00 in0.0 mm
10:53 AM 81.4°F27.4°C 50.1°F10.1°C 34% 0.8 mph ENE1.3 kmh ENE 2.2 mph3.5 kmh 30.09 in1019.0 mb 0.00 in0.0 mm 0.00 in/hr0.0 mm/hr 0.00 in0.0 mm
10:48 AM 81.0°F27.2°C 50.6°F10.3°C 35% 0.4 mph ESE0.6 kmh ESE 1.6 mph2.6 kmh 30.09 in1019.0 mb 0.00 in0.0 mm 0.00 in/hr0.0 mm/hr 0.00 in0.0 mm
10:43 AM 80.3°F26.8°C 51.6°F10.9°C 37% 0.8 mph SSE1.3 kmh SSE 3.6 mph5.8 kmh 30.09 in1019.0 mb 0.00 in0.0 mm 0.00 in/hr0.0 mm/hr 0.00 in0.0 mm
10:38 AM 79.4°F26.3°C 51.5°F10.8°C 38% 2.0 mph SSE3.2 kmh SSE 3.6 mph5.8 kmh 30.09 in1019.0 mb 0.00 in0.0 mm 0.00 in/hr0.0 mm/hr 0.00 in0.0 mm
10:33 AM 78.8°F26.0°C 50.2°F10.1°C 37% 2.6 mph SE4.2 kmh SE 3.4 mph5.5 kmh 30.10 in1019.3 mb 0.00 in0.0 mm 0.00 in/hr0.0 mm/hr 0.00 in0.0 mm
10:28 AM 78.1°F25.6°C 49.6°F9.8°C 37% 1.5 mph SE2.4 kmh SE 3.8 mph6.1 kmh 30.10 in1019.3 mb 0.00 in0.0 mm 0.00 in/hr0.0 mm/hr 0.00 in0.0 mm
10:23 AM 77.4°F25.2°C 50.5°F10.3°C 39% 0.9 mph SE1.4 kmh SE 3.8 mph6.1 kmh 30.10 in1019.3 mb 0.00 in0.0 mm 0.00 in/hr0.0 mm/hr 0.00 in0.0 mm
10:18 AM 76.7°F24.8°C 49.2°F9.6°C 38% 2.2 mph NE3.5 kmh NE 3.4 mph5.5 kmh 30.10 in1019.3 mb 0.00 in0.0 mm 0.00 in/hr0.0 mm/hr 0.00 in0.0 mm
10:13 AM 76.1°F24.5°C 49.4°F9.7°C 39% 1.5 mph ESE2.4 kmh ESE 3.1 mph5.0 kmh 30.10 in1019.3 mb 0.00 in0.0 mm 0.00 in/hr0.0 mm/hr 0.00 in0.0 mm
10:08 AM 75.4°F24.1°C 48.7°F9.3°C 39% 2.3 mph ESE3.7 kmh ESE 4.5 mph7.2 kmh 30.10 in1019.3 mb 0.00 in0.0 mm 0.00 in/hr0.0 mm/hr 0.00 in0.0 mm
10:03 AM 74.9°F23.8°C 48.2°F9.0°C 39% 3.7 mph NE6.0 kmh NE 4.5 mph7.2 kmh 30.10 in1019.3 mb 0.00 in0.0 mm 0.00 in/hr0.0 mm/hr 0.00 in0.0 mm
09:57 AM 74.5°F23.6°C 49.9°F9.9°C 42% 3.1 mph E5.0 kmh E 4.5 mph7.2 kmh 30.10 in1019.3 mb 0.00 in0.0 mm 0.00 in/hr0.0 mm/hr 0.00 in0.0 mm
09:52 AM 73.8°F23.2°C 49.2°F9.6°C 42% 2.2 mph ESE3.5 kmh ESE 4.7 mph7.6 kmh 30.10 in1019.3 mb 0.00 in0.0 mm 0.00 in/hr0.0 mm/hr 0.00 in0.0 mm
09:48 AM 72.9°F22.7°C 50.2°F10.1°C 45% 1.7 mph E2.7 kmh E 4.7 mph7.6 kmh 30.10 in1019.3 mb 0.00 in0.0 mm 0.00 in/hr0.0 mm/hr 0.00 in0.0 mm
09:43 AM 72.2°F22.3°C 49.5°F9.7°C 45% 3.6 mph ESE5.8 kmh ESE 4.7 mph7.6 kmh 30.10 in1019.3 mb 0.00 in0.0 mm 0.00 in/hr0.0 mm/hr 0.00 in0.0 mm
09:38 AM 71.3°F21.8°C 49.3°F9.6°C 46% 1.9 mph E3.1 kmh E 3.6 mph5.8 kmh 30.10 in1019.3 mb 0.00 in0.0 mm 0.00 in/hr0.0 mm/hr 0.00 in0.0 mm
09:33 AM 70.6°F21.4°C 48.7°F9.3°C 46% 1.9 mph ESE3.1 kmh ESE 4.0 mph6.4 kmh 30.10 in1019.3 mb 0.00 in0.0 mm 0.00 in/hr0.0 mm/hr 0.00 in0.0 mm
09:28 AM 69.8°F21.0°C 48.1°F8.9°C 46% 3.3 mph E5.3 kmh E 4.0 mph6.4 kmh 30.10 in1019.3 mb 0.00 in0.0 mm 0.00 in/hr0.0 mm/hr 0.00 in0.0 mm
09:23 AM 69.3°F20.7°C 48.2°F9.0°C 47% 2.3 mph ESE3.7 kmh ESE 3.4 mph5.5 kmh 30.10 in1019.3 mb 0.00 in0.0 mm 0.00 in/hr0.0 mm/hr 0.00 in0.0 mm
09:18 AM 69.1°F20.6°C 48.0°F8.9°C 47% 1.7 mph ESE2.7 kmh ESE 5.1 mph8.2 kmh 30.10 in1019.3 mb 0.00 in0.0 mm 0.00 in/hr0.0 mm/hr 0.00 in0.0 mm
09:13 AM 68.9°F20.5°C 47.8°F8.8°C 47% 1.0 mph ESE1.6 kmh ESE 5.1 mph8.2 kmh 30.10 in1019.3 mb 0.00 in0.0 mm 0.00 in/hr0.0 mm/hr 0.00 in0.0 mm
09:08 AM 68.6°F20.3°C 48.1°F8.9°C 48% 1.9 mph SE3.1 kmh SE 3.6 mph5.8 kmh 30.10 in1019.3 mb 0.00 in0.0 mm 0.00 in/hr0.0 mm/hr 0.00 in0.0 mm
09:03 AM 67.7°F19.8°C 47.9°F8.8°C 49% 2.3 mph ESE3.7 kmh ESE 4.7 mph7.6 kmh 30.10 in1019.3 mb 0.00 in0.0 mm 0.00 in/hr0.0 mm/hr 0.00 in0.0 mm
08:57 AM 66.6°F19.2°C 47.5°F8.6°C 50% 4.3 mph E6.9 kmh E 4.7 mph7.6 kmh 30.10 in1019.3 mb 0.00 in0.0 mm 0.00 in/hr0.0 mm/hr 0.00 in0.0 mm
08:52 AM 65.9°F18.8°C 46.8°F8.2°C 50% 2.3 mph ESE3.7 kmh ESE 4.3 mph6.9 kmh 30.10 in1019.3 mb 0.00 in0.0 mm 0.00 in/hr0.0 mm/hr 0.00 in0.0 mm
08:47 AM 65.2°F18.4°C 47.1°F8.4°C 52% 3.3 mph E5.3 kmh E 4.3 mph6.9 kmh 30.10 in1019.3 mb 0.00 in0.0 mm 0.00 in/hr0.0 mm/hr 0.00 in0.0 mm
08:42 AM 64.4°F18.0°C 47.4°F8.6°C 54% 3.5 mph ESE5.6 kmh ESE 4.3 mph6.9 kmh 30.10 in1019.3 mb 0.00 in0.0 mm 0.00 in/hr0.0 mm/hr 0.00 in0.0 mm
08:37 AM 63.5°F17.5°C 46.5°F8.1°C 54% 3.9 mph SE6.3 kmh SE 4.3 mph6.9 kmh 30.10 in1019.3 mb 0.00 in0.0 mm 0.00 in/hr0.0 mm/hr 0.00 in0.0 mm
08:32 AM 62.6°F17.0°C 46.2°F7.9°C 55% 1.7 mph SE2.7 kmh SE 3.6 mph5.8 kmh 30.10 in1019.3 mb 0.00 in0.0 mm 0.00 in/hr0.0 mm/hr 0.00 in0.0 mm
08:27 AM 61.7°F16.5°C 45.4°F7.4°C 55% 3.0 mph E4.8 kmh E 3.4 mph5.5 kmh 30.10 in1019.3 mb 0.00 in0.0 mm 0.00 in/hr0.0 mm/hr 0.00 in0.0 mm
08:23 AM 61.2°F16.2°C 44.9°F7.2°C 55% 2.6 mph ESE4.2 kmh ESE 4.7 mph7.6 kmh 30.10 in1019.3 mb 0.00 in0.0 mm 0.00 in/hr0.0 mm/hr 0.00 in0.0 mm
08:18 AM 60.5°F15.8°C 44.7°F7.1°C 56% 4.1 mph E6.6 kmh E 4.7 mph7.6 kmh 30.10 in1019.3 mb 0.00 in0.0 mm 0.00 in/hr0.0 mm/hr 0.00 in0.0 mm
08:13 AM 59.8°F15.4°C 44.5°F6.9°C 57% 2.5 mph ESE4.0 kmh ESE 4.3 mph6.9 kmh 30.10 in1019.3 mb 0.00 in0.0 mm 0.00 in/hr0.0 mm/hr 0.00 in0.0 mm
08:08 AM 58.9°F14.9°C 43.7°F6.5°C 57% 3.4 mph ENE5.5 kmh ENE 5.1 mph8.2 kmh 30.11 in1019.6 mb 0.00 in0.0 mm 0.00 in/hr0.0 mm/hr 0.00 in0.0 mm
08:03 AM 58.1°F14.5°C 43.5°F6.4°C 58% 3.1 mph ENE5.0 kmh ENE 5.1 mph8.2 kmh 30.11 in1019.6 mb 0.00 in0.0 mm 0.00 in/hr0.0 mm/hr 0.00 in0.0 mm
07:57 AM 57.2°F14.0°C 42.7°F5.9°C 58% 3.9 mph NE6.3 kmh NE 5.1 mph8.2 kmh 30.11 in1019.6 mb 0.00 in0.0 mm 0.00 in/hr0.0 mm/hr 0.00 in0.0 mm
07:52 AM 56.3°F13.5°C 42.7°F5.9°C 60% 4.1 mph E6.6 kmh E 5.1 mph8.2 kmh 30.11 in1019.6 mb 0.00 in0.0 mm 0.00 in/hr0.0 mm/hr 0.00 in0.0 mm
07:47 AM 55.1°F12.8°C 42.3°F5.7°C 62% 3.2 mph NE5.1 kmh NE 3.6 mph5.8 kmh 30.11 in1019.6 mb 0.00 in0.0 mm 0.00 in/hr0.0 mm/hr 0.00 in0.0 mm
07:42 AM 54.0°F12.2°C 42.0°F5.6°C 64% 0.4 mph ENE0.6 kmh ENE 0.7 mph1.1 kmh 30.11 in1019.6 mb 0.00 in0.0 mm 0.00 in/hr0.0 mm/hr 0.00 in0.0 mm
07:37 AM 53.5°F11.9°C 41.6°F5.3°C 64% Calm Calm 1.1 mph1.8 kmh 30.11 in1019.6 mb 0.00 in0.0 mm 0.00 in/hr0.0 mm/hr 0.00 in0.0 mm
07:32 AM 52.7°F11.5°C 41.7°F5.4°C 66% 0.2 mph NE0.3 kmh NE 2.5 mph4.0 kmh 30.11 in1019.6 mb 0.00 in0.0 mm 0.00 in/hr0.0 mm/hr 0.00 in0.0 mm
07:27 AM 51.5°F10.8°C 40.9°F4.9°C 67% 1.1 mph NE1.8 kmh NE 2.5 mph4.0 kmh 30.11 in1019.6 mb 0.00 in0.0 mm 0.00 in/hr0.0 mm/hr 0.00 in0.0 mm
07:22 AM 50.6°F10.3°C 40.1°F4.5°C 67% 0.4 mph ENE0.6 kmh ENE 1.3 mph2.1 kmh 30.11 in1019.6 mb 0.00 in0.0 mm 0.00 in/hr0.0 mm/hr 0.00 in0.0 mm
07:17 AM 49.9°F9.9°C 39.3°F4.1°C 67% 0.7 mph ENE1.1 kmh ENE 2.9 mph4.7 kmh 30.11 in1019.6 mb 0.00 in0.0 mm 0.00 in/hr0.0 mm/hr 0.00 in0.0 mm
07:12 AM 49.3°F9.6°C 38.8°F3.8°C 67% 2.6 mph E4.2 kmh E 2.9 mph4.7 kmh 30.11 in1019.6 mb 0.00 in0.0 mm 0.00 in/hr0.0 mm/hr 0.00 in0.0 mm
07:07 AM 48.6°F9.2°C 38.5°F3.6°C 68% 2.2 mph E3.5 kmh E 2.5 mph4.0 kmh 30.11 in1019.6 mb 0.00 in0.0 mm 0.00 in/hr0.0 mm/hr 0.00 in0.0 mm
07:02 AM 47.9°F8.8°C 37.8°F3.2°C 68% 1.8 mph E2.9 kmh E 2.5 mph4.0 kmh 30.11 in1019.6 mb 0.00 in0.0 mm 0.00 in/hr0.0 mm/hr 0.00 in0.0 mm
06:57 AM 47.5°F8.6°C 37.4°F3.0°C 68% 0.6 mph E1.0 kmh E 0.7 mph1.1 kmh 30.11 in1019.6 mb 0.00 in0.0 mm 0.00 in/hr0.0 mm/hr 0.00 in0.0 mm
06:52 AM 47.0°F8.3°C 37.0°F2.8°C 68% Calm Calm 0.4 mph0.6 kmh 30.11 in1019.6 mb 0.00 in0.0 mm 0.00 in/hr0.0 mm/hr 0.00 in0.0 mm
06:47 AM 46.6°F8.1°C 36.3°F2.4°C 67% Calm Calm 1.1 mph1.8 kmh 30.11 in1019.6 mb 0.00 in0.0 mm 0.00 in/hr0.0 mm/hr 0.00 in0.0 mm
06:42 AM 46.1°F7.8°C 35.4°F1.9°C 66% 0.8 mph NE1.3 kmh NE 1.3 mph2.1 kmh 30.11 in1019.6 mb 0.00 in0.0 mm 0.00 in/hr0.0 mm/hr 0.00 in0.0 mm
06:37 AM 45.9°F7.7°C 35.2°F1.8°C 66% 1.2 mph NE1.9 kmh NE 1.3 mph2.1 kmh 30.11 in1019.6 mb 0.00 in0.0 mm 0.00 in/hr0.0 mm/hr 0.00 in0.0 mm
06:32 AM 45.7°F7.6°C 35.0°F1.7°C 66% Calm Calm 1.1 mph1.8 kmh 30.11 in1019.6 mb 0.00 in0.0 mm 0.00 in/hr0.0 mm/hr 0.00 in0.0 mm
06:27 AM 45.7°F7.6°C 34.6°F1.4°C 65% 0.9 mph 1.4 kmh 2.9 mph4.7 kmh 30.11 in1019.6 mb 0.00 in0.0 mm 0.00 in/hr0.0 mm/hr 0.00 in0.0 mm
06:22 AM 45.7°F7.6°C 34.2°F1.2°C 64% 2.3 mph NE3.7 kmh NE 2.9 mph4.7 kmh 30.10 in1019.3 mb 0.00 in0.0 mm 0.00 in/hr0.0 mm/hr 0.00 in0.0 mm
06:17 AM 45.9°F7.7°C 34.4°F1.3°C 64% Calm Calm 0.4 mph0.6 kmh 30.11 in1019.6 mb 0.00 in0.0 mm 0.00 in/hr0.0 mm/hr 0.00 in0.0 mm
06:12 AM 46.1°F7.8°C 34.6°F1.4°C 64% Calm Calm 0.4 mph0.6 kmh 30.11 in1019.6 mb 0.00 in0.0 mm 0.00 in/hr0.0 mm/hr 0.00 in0.0 mm
06:07 AM 46.3°F7.9°C 34.8°F1.6°C 64% Calm Calm 2.5 mph4.0 kmh 30.10 in1019.3 mb 0.00 in0.0 mm 0.00 in/hr0.0 mm/hr 0.00 in0.0 mm
06:02 AM 46.4°F8.0°C 34.9°F1.6°C 64% Calm Calm 3.4 mph5.5 kmh 30.10 in1019.3 mb 0.00 in0.0 mm 0.00 in/hr0.0 mm/hr 0.00 in0.0 mm
05:57 AM 46.4°F8.0°C 34.5°F1.4°C 63% 2.3 mph NE3.7 kmh NE 3.4 mph5.5 kmh 30.10 in1019.3 mb 0.00 in0.0 mm 0.00 in/hr0.0 mm/hr 0.00 in0.0 mm
05:52 AM 47.2°F8.4°C 34.8°F1.6°C 62% 2.2 mph NNE3.5 kmh NNE 3.1 mph5.0 kmh 30.10 in1019.3 mb 0.00 in0.0 mm 0.00 in/hr0.0 mm/hr 0.00 in0.0 mm
05:47 AM 47.2°F8.4°C 35.2°F1.8°C 63% 2.4 mph NNE3.9 kmh NNE 3.4 mph5.5 kmh 30.10 in1019.3 mb 0.00 in0.0 mm 0.00 in/hr0.0 mm/hr 0.00 in0.0 mm
05:42 AM 47.3°F8.5°C 35.0°F1.7°C 62% 2.7 mph NNE4.3 kmh NNE 3.4 mph5.5 kmh 30.10 in1019.3 mb 0.00 in0.0 mm 0.00 in/hr0.0 mm/hr 0.00 in0.0 mm
05:37 AM 47.5°F8.6°C 35.2°F1.8°C 62% 2.6 mph NNE4.2 kmh NNE 3.1 mph5.0 kmh 30.10 in1019.3 mb 0.00 in0.0 mm 0.00 in/hr0.0 mm/hr 0.00 in0.0 mm
05:32 AM 47.5°F8.6°C 35.2°F1.8°C 62% 2.2 mph 3.5 kmh 2.9 mph4.7 kmh 30.10 in1019.3 mb 0.00 in0.0 mm 0.00 in/hr0.0 mm/hr 0.00 in0.0 mm
05:27 AM 47.5°F8.6°C 35.2°F1.8°C 62% 1.9 mph 3.1 kmh 2.9 mph4.7 kmh 30.10 in1019.3 mb 0.00 in0.0 mm 0.00 in/hr0.0 mm/hr 0.00 in0.0 mm
05:22 AM 47.2°F8.4°C 34.8°F1.6°C 62% 2.0 mph NNE3.2 kmh NNE 2.9 mph4.7 kmh 30.10 in1019.3 mb 0.00 in0.0 mm 0.00 in/hr0.0 mm/hr 0.00 in0.0 mm
05:17 AM 47.3°F8.5°C 34.6°F1.4°C 61% 2.6 mph N4.2 kmh N 2.9 mph4.7 kmh 30.10 in1019.3 mb 0.00 in0.0 mm 0.00 in/hr0.0 mm/hr 0.00 in0.0 mm
05:12 AM 47.3°F8.5°C 34.6°F1.4°C 61% 1.7 mph 2.7 kmh 1.8 mph2.9 kmh 30.10 in1019.3 mb 0.00 in0.0 mm 0.00 in/hr0.0 mm/hr 0.00 in0.0 mm
05:07 AM 47.2°F8.4°C 34.4°F1.3°C 61% Calm Calm -- 30.10 in1019.3 mb 0.00 in0.0 mm 0.00 in/hr0.0 mm/hr 0.00 in0.0 mm
05:02 AM 47.2°F8.4°C 34.4°F1.3°C 61% Calm Calm -- 30.10 in1019.3 mb 0.00 in0.0 mm 0.00 in/hr0.0 mm/hr 0.00 in0.0 mm
04:56 AM 47.3°F8.5°C 34.6°F1.4°C 61% Calm Calm -- 30.10 in1019.3 mb 0.00 in0.0 mm 0.00 in/hr0.0 mm/hr 0.00 in0.0 mm
04:51 AM 47.5°F8.6°C 34.7°F1.5°C 61% Calm Calm -- 30.10 in1019.3 mb 0.00 in0.0 mm 0.00 in/hr0.0 mm/hr 0.00 in0.0 mm
04:46 AM 47.7°F8.7°C 34.9°F1.6°C 61% Calm Calm -- 30.10 in1019.3 mb 0.00 in0.0 mm 0.00 in/hr0.0 mm/hr 0.00 in0.0 mm
04:41 AM 47.9°F8.8°C 35.1°F1.7°C 61% Calm Calm 0.7 mph1.1 kmh 30.10 in1019.3 mb 0.00 in0.0 mm 0.00 in/hr0.0 mm/hr 0.00 in0.0 mm
04:37 AM 48.2°F9.0°C 35.8°F2.1°C 62% Calm Calm 4.0 mph6.4 kmh 30.10 in1019.3 mb 0.00 in0.0 mm 0.00 in/hr0.0 mm/hr 0.00 in0.0 mm
04:32 AM 48.2°F9.0°C 35.8°F2.1°C 62% 0.7 mph SE1.1 kmh SE 5.6 mph9.0 kmh 30.10 in1019.3 mb 0.00 in0.0 mm 0.00 in/hr0.0 mm/hr 0.00 in0.0 mm
04:27 AM 48.1°F8.9°C 36.1°F2.3°C 63% 4.8 mph N7.7 kmh N 5.6 mph9.0 kmh 30.10 in1019.3 mb 0.00 in0.0 mm 0.00 in/hr0.0 mm/hr 0.00 in0.0 mm
04:22 AM 47.9°F8.8°C 35.9°F2.2°C 63% 4.0 mph NE6.4 kmh NE 4.7 mph7.6 kmh 30.10 in1019.3 mb 0.00 in0.0 mm 0.00 in/hr0.0 mm/hr 0.00 in0.0 mm
04:17 AM 47.7°F8.7°C 35.7°F2.1°C 63% 3.8 mph NE6.1 kmh NE 4.5 mph7.2 kmh 30.10 in1019.3 mb 0.00 in0.0 mm 0.00 in/hr0.0 mm/hr 0.00 in0.0 mm
04:12 AM 47.7°F8.7°C 34.9°F1.6°C 61% 3.0 mph NNE4.8 kmh NNE 6.5 mph10.5 kmh 30.10 in1019.3 mb 0.00 in0.0 mm 0.00 in/hr0.0 mm/hr 0.00 in0.0 mm
04:07 AM 47.7°F8.7°C 34.9°F1.6°C 61% 5.5 mph 8.9 kmh 7.2 mph11.6 kmh 30.10 in1019.3 mb 0.00 in0.0 mm 0.00 in/hr0.0 mm/hr 0.00 in0.0 mm
04:02 AM 47.9°F8.8°C 35.1°F1.7°C 61% 7.1 mph 11.4 kmh 7.2 mph11.6 kmh 30.10 in1019.3 mb 0.00 in0.0 mm 0.00 in/hr0.0 mm/hr 0.00 in0.0 mm
03:56 AM 48.2°F9.0°C 35.1°F1.7°C 60% 4.9 mph NNE7.9 kmh NNE 5.4 mph8.7 kmh 30.09 in1019.0 mb 0.00 in0.0 mm 0.00 in/hr0.0 mm/hr 0.00 in0.0 mm
03:51 AM 48.6°F9.2°C 34.0°F1.1°C 57% 1.5 mph NNE2.4 kmh NNE 4.7 mph7.6 kmh 30.09 in1019.0 mb 0.00 in0.0 mm 0.00 in/hr0.0 mm/hr 0.00 in0.0 mm
03:46 AM 49.1°F9.5°C 34.1°F1.2°C 56% 3.3 mph 5.3 kmh 4.0 mph6.4 kmh 30.09 in1019.0 mb 0.00 in0.0 mm 0.00 in/hr0.0 mm/hr 0.00 in0.0 mm
03:41 AM 49.7°F9.8°C 34.1°F1.2°C 55% 1.7 mph NE2.7 kmh NE 1.8 mph2.9 kmh 30.09 in1019.0 mb 0.00 in0.0 mm 0.00 in/hr0.0 mm/hr 0.00 in0.0 mm
03:36 AM 50.0°F10.0°C 34.0°F1.1°C 54% 0.7 mph E1.1 kmh E 0.9 mph1.4 kmh 30.09 in1019.0 mb 0.00 in0.0 mm 0.00 in/hr0.0 mm/hr 0.00 in0.0 mm
03:31 AM 50.6°F10.3°C 34.5°F1.4°C 54% 0.6 mph SSE1.0 kmh SSE 1.1 mph1.8 kmh 30.09 in1019.0 mb 0.00 in0.0 mm 0.00 in/hr0.0 mm/hr 0.00 in0.0 mm
03:26 AM 50.8°F10.4°C 34.7°F1.5°C 54% 0.3 mph E0.5 kmh E 1.1 mph1.8 kmh 30.09 in1019.0 mb 0.00 in0.0 mm 0.00 in/hr0.0 mm/hr 0.00 in0.0 mm
03:21 AM 50.9°F10.5°C 34.8°F1.6°C 54% 0.9 mph E1.4 kmh E 3.4 mph5.5 kmh 30.09 in1019.0 mb 0.00 in0.0 mm 0.00 in/hr0.0 mm/hr 0.00 in0.0 mm
03:16 AM 50.9°F10.5°C 34.8°F1.6°C 54% 2.5 mph ENE4.0 kmh ENE 4.0 mph6.4 kmh 30.09 in1019.0 mb 0.00 in0.0 mm 0.00 in/hr0.0 mm/hr 0.00 in0.0 mm
03:11 AM 50.4°F10.2°C 33.9°F1.1°C 53% 3.8 mph NNE6.1 kmh NNE 4.0 mph6.4 kmh 30.09 in1019.0 mb 0.00 in0.0 mm 0.00 in/hr0.0 mm/hr 0.00 in0.0 mm
03:06 AM 50.4°F10.2°C 33.5°F0.8°C 52% 0.8 mph NE1.3 kmh NE 1.1 mph1.8 kmh 30.09 in1019.0 mb 0.00 in0.0 mm 0.00 in/hr0.0 mm/hr 0.00 in0.0 mm
03:01 AM 50.8°F10.4°C 33.3°F0.7°C 51% 0.3 mph 0.5 kmh 1.8 mph2.9 kmh 30.09 in1019.0 mb 0.00 in0.0 mm 0.00 in/hr0.0 mm/hr 0.00 in0.0 mm
02:56 AM 51.5°F10.8°C 33.9°F1.1°C 51% 0.6 mph NNE1.0 kmh NNE 1.8 mph2.9 kmh 30.09 in1019.0 mb 0.00 in0.0 mm 0.00 in/hr0.0 mm/hr 0.00 in0.0 mm
02:51 AM 51.8°F11.0°C 34.3°F1.3°C 51% 1.5 mph NE2.4 kmh NE 1.8 mph2.9 kmh 30.09 in1019.0 mb 0.00 in0.0 mm 0.00 in/hr0.0 mm/hr 0.00 in0.0 mm
02:46 AM 52.0°F11.1°C 34.9°F1.6°C 52% 0.4 mph NE0.6 kmh NE 1.8 mph2.9 kmh 30.09 in1019.0 mb 0.00 in0.0 mm 0.00 in/hr0.0 mm/hr 0.00 in0.0 mm
02:41 AM 51.7°F10.9°C 34.6°F1.4°C 52% 1.8 mph NNE2.9 kmh NNE 4.0 mph6.4 kmh 30.09 in1019.0 mb 0.00 in0.0 mm 0.00 in/hr0.0 mm/hr 0.00 in0.0 mm
02:36 AM 51.5°F10.8°C 33.9°F1.1°C 51% 0.6 mph 1.0 kmh 4.0 mph6.4 kmh 30.09 in1019.0 mb 0.00 in0.0 mm 0.00 in/hr0.0 mm/hr 0.00 in0.0 mm
02:31 AM 51.8°F11.0°C 34.3°F1.3°C 51% 3.7 mph N6.0 kmh N 4.0 mph6.4 kmh 30.09 in1019.0 mb 0.00 in0.0 mm 0.00 in/hr0.0 mm/hr 0.00 in0.0 mm
02:26 AM 52.2°F11.2°C 35.1°F1.7°C 52% 2.5 mph 4.0 kmh 3.1 mph5.0 kmh 30.09 in1019.0 mb 0.00 in0.0 mm 0.00 in/hr0.0 mm/hr 0.00 in0.0 mm
02:21 AM 52.0°F11.1°C 34.5°F1.4°C 51% 1.2 mph NE1.9 kmh NE 3.1 mph5.0 kmh 30.09 in1019.0 mb 0.00 in0.0 mm 0.00 in/hr0.0 mm/hr 0.00 in0.0 mm
02:16 AM 52.0°F11.1°C 34.5°F1.4°C 51% 1.5 mph E2.4 kmh E 2.0 mph3.2 kmh 30.09 in1019.0 mb 0.00 in0.0 mm 0.00 in/hr0.0 mm/hr 0.00 in0.0 mm
02:11 AM 52.2°F11.2°C 34.2°F1.2°C 50% Calm Calm 1.1 mph1.8 kmh 30.09 in1019.0 mb 0.00 in0.0 mm 0.00 in/hr0.0 mm/hr 0.00 in0.0 mm
02:06 AM 52.4°F11.3°C 33.8°F1.0°C 49% 0.7 mph NNW1.1 kmh NNW 1.1 mph1.8 kmh 30.09 in1019.0 mb 0.00 in0.0 mm 0.00 in/hr0.0 mm/hr 0.00 in0.0 mm
02:01 AM 52.2°F11.2°C 33.6°F0.9°C 49% 0.4 mph 0.6 kmh 0.7 mph1.1 kmh 30.09 in1019.0 mb 0.00 in0.0 mm 0.00 in/hr0.0 mm/hr 0.00 in0.0 mm
01:56 AM 52.6°F11.4°C 33.4°F0.8°C 48% 0.7 mph 1.1 kmh 3.4 mph5.5 kmh 30.09 in1019.0 mb 0.00 in0.0 mm 0.00 in/hr0.0 mm/hr 0.00 in0.0 mm
01:51 AM 52.9°F11.6°C 33.7°F0.9°C 48% 1.1 mph 1.8 kmh 3.4 mph5.5 kmh 30.09 in1019.0 mb 0.00 in0.0 mm 0.00 in/hr0.0 mm/hr 0.00 in0.0 mm
01:46 AM 53.5°F11.9°C 34.7°F1.5°C 49% 2.0 mph 3.2 kmh 3.8 mph6.1 kmh 30.09 in1019.0 mb 0.00 in0.0 mm 0.00 in/hr0.0 mm/hr 0.00 in0.0 mm
01:41 AM 53.1°F11.7°C 35.0°F1.7°C 50% 2.5 mph NE4.0 kmh NE 3.8 mph6.1 kmh 30.09 in1019.0 mb 0.00 in0.0 mm 0.00 in/hr0.0 mm/hr 0.00 in0.0 mm
01:36 AM 52.7°F11.5°C 33.6°F0.9°C 48% 2.9 mph NNE4.7 kmh NNE 3.6 mph5.8 kmh 30.09 in1019.0 mb 0.00 in0.0 mm 0.00 in/hr0.0 mm/hr 0.00 in0.0 mm
01:31 AM 53.1°F11.7°C 33.8°F1.0°C 48% 1.3 mph N2.1 kmh N 5.4 mph8.7 kmh 30.09 in1019.0 mb 0.00 in0.0 mm 0.00 in/hr0.0 mm/hr 0.00 in0.0 mm
01:26 AM 53.5°F11.9°C 34.2°F1.2°C 48% 1.5 mph 2.4 kmh 6.7 mph10.8 kmh 30.09 in1019.0 mb 0.00 in0.0 mm 0.00 in/hr0.0 mm/hr 0.00 in0.0 mm
01:21 AM 54.0°F12.2°C 34.1°F1.2°C 47% 6.1 mph 9.8 kmh 6.7 mph10.8 kmh 30.09 in1019.0 mb 0.00 in0.0 mm 0.00 in/hr0.0 mm/hr 0.00 in0.0 mm
01:16 AM 54.2°F12.3°C 33.8°F1.0°C 46% 2.8 mph NE4.5 kmh NE 3.4 mph5.5 kmh 30.09 in1019.0 mb 0.00 in0.0 mm 0.00 in/hr0.0 mm/hr 0.00 in0.0 mm
01:11 AM 54.4°F12.4°C 33.8°F1.0°C 46% 0.9 mph E1.4 kmh E 1.1 mph1.8 kmh 30.09 in1019.0 mb 0.00 in0.0 mm 0.00 in/hr0.0 mm/hr 0.00 in0.0 mm
01:06 AM 54.7°F12.6°C 34.7°F1.5°C 47% Calm Calm 0.4 mph0.6 kmh 30.10 in1019.3 mb 0.00 in0.0 mm 0.00 in/hr0.0 mm/hr 0.00 in0.0 mm
01:01 AM 55.1°F12.8°C 35.1°F1.7°C 47% 0.3 mph ESE0.5 kmh ESE 2.5 mph4.0 kmh 30.09 in1019.0 mb 0.00 in0.0 mm 0.00 in/hr0.0 mm/hr 0.00 in0.0 mm
12:55 AM 55.1°F12.8°C 35.1°F1.7°C 47% 0.4 mph 0.6 kmh 3.4 mph5.5 kmh 30.09 in1019.0 mb 0.00 in0.0 mm 0.00 in/hr0.0 mm/hr 0.00 in0.0 mm
12:50 AM 55.4°F13.0°C 34.8°F1.6°C 46% 3.4 mph NNE5.5 kmh NNE 3.4 mph5.5 kmh 30.09 in1019.0 mb 0.00 in0.0 mm 0.00 in/hr0.0 mm/hr 0.00 in0.0 mm
12:45 AM 55.6°F13.1°C 35.6°F2.0°C 47% 1.9 mph ENE3.1 kmh ENE 3.8 mph6.1 kmh 30.09 in1019.0 mb 0.00 in0.0 mm 0.00 in/hr0.0 mm/hr 0.00 in0.0 mm
12:40 AM 55.6°F13.1°C 35.6°F2.0°C 47% 3.1 mph ENE5.0 kmh ENE 5.8 mph9.3 kmh 30.09 in1019.0 mb 0.00 in0.0 mm 0.00 in/hr0.0 mm/hr 0.00 in0.0 mm
12:35 AM 55.4°F13.0°C 35.4°F1.9°C 47% 4.0 mph ENE6.4 kmh ENE 5.8 mph9.3 kmh 30.09 in1019.0 mb 0.00 in0.0 mm 0.00 in/hr0.0 mm/hr 0.00 in0.0 mm
12:30 AM 55.3°F12.9°C 35.3°F1.8°C 47% 5.1 mph NE8.2 kmh NE 5.4 mph8.7 kmh 30.10 in1019.3 mb 0.00 in0.0 mm 0.00 in/hr0.0 mm/hr 0.00 in0.0 mm
12:26 AM 55.1°F12.8°C 33.9°F1.1°C 45% 3.0 mph NE4.8 kmh NE 3.4 mph5.5 kmh 30.10 in1019.3 mb 0.00 in0.0 mm 0.00 in/hr0.0 mm/hr 0.00 in0.0 mm
12:21 AM 55.1°F12.8°C 33.4°F0.8°C 44% 1.1 mph NNE1.8 kmh NNE 1.1 mph1.8 kmh 30.10 in1019.3 mb 0.00 in0.0 mm 0.00 in/hr0.0 mm/hr 0.00 in0.0 mm
12:16 AM 55.1°F12.8°C 33.4°F0.8°C 44% 0.4 mph NE0.6 kmh NE 0.7 mph1.1 kmh 30.10 in1019.3 mb 0.00 in0.0 mm 0.00 in/hr0.0 mm/hr 0.00 in0.0 mm
12:11 AM 55.3°F12.9°C 33.6°F0.9°C 44% 0.4 mph ENE0.6 kmh ENE 0.7 mph1.1 kmh 30.09 in1019.0 mb 0.00 in0.0 mm 0.00 in/hr0.0 mm/hr 0.00 in0.0 mm
12:06 AM 55.4°F13.0°C 33.2°F0.7°C 43% 0.3 mph E0.5 kmh E 1.1 mph1.8 kmh 30.10 in1019.3 mb 0.00 in0.0 mm 0.00 in/hr0.0 mm/hr 0.00 in0.0 mm
12:01 AM 55.8°F13.2°C 33.5°F0.8°C 43% 0.7 mph WNW1.1 kmh WNW 1.1 mph1.8 kmh 30.10 in1019.3 mb 0.00 in0.0 mm 0.00 in/hr0.0 mm/hr 0.00 in0.0 mm